sensor_id;sensor_type;location;lat;lon;timestamp;pressure;altitude;pressure_sealevel;temperature;humidity
57801;BME280;43627;42.728;23.256;2023-02-18T00:01:10;95746.47;;;2.72;74.15
57801;BME280;43627;42.728;23.256;2023-02-18T00:03:37;95741.50;;;2.64;73.34
57801;BME280;43627;42.728;23.256;2023-02-18T00:06:23;95738.72;;;2.81;82.88
57801;BME280;43627;42.728;23.256;2023-02-18T00:08:50;95718.03;;;2.68;80.06
57801;BME280;43627;42.728;23.256;2023-02-18T00:11:19;95734.53;;;2.73;75.54
57801;BME280;43627;42.728;23.256;2023-02-18T00:13:54;95729.91;;;2.77;80.14
57801;BME280;43627;42.728;23.256;2023-02-18T00:16:23;95734.47;;;2.84;84.37
57801;BME280;43627;42.728;23.256;2023-02-18T00:18:51;95724.50;;;2.81;85.89
57801;BME280;43627;42.728;23.256;2023-02-18T00:21:20;95712.56;;;2.82;81.33
57801;BME280;43627;42.728;23.256;2023-02-18T00:23:46;95707.66;;;2.66;77.22
57801;BME280;43627;42.728;23.256;2023-02-18T00:26:18;95717.59;;;2.73;77.98
57801;BME280;43627;42.728;23.256;2023-02-18T00:28:46;95706.06;;;2.72;74.90
57801;BME280;43627;42.728;23.256;2023-02-18T00:31:23;95696.50;;;2.64;75.33
57801;BME280;43627;42.728;23.256;2023-02-18T00:33:50;95695.34;;;2.62;75.29
57801;BME280;43627;42.728;23.256;2023-02-18T00:36:18;95685.34;;;2.62;76.96
57801;BME280;43627;42.728;23.256;2023-02-18T00:38:46;95697.66;;;2.63;83.10
57801;BME280;43627;42.728;23.256;2023-02-18T00:41:14;95681.53;;;2.60;81.53
57801;BME280;43627;42.728;23.256;2023-02-18T00:43:41;95690.38;;;2.60;78.63
57801;BME280;43627;42.728;23.256;2023-02-18T00:46:08;95687.38;;;2.40;76.79
57801;BME280;43627;42.728;23.256;2023-02-18T00:48:35;95692.41;;;2.31;81.19
57801;BME280;43627;42.728;23.256;2023-02-18T00:51:03;95680.16;;;2.19;82.55
57801;BME280;43627;42.728;23.256;2023-02-18T00:53:30;95672.88;;;2.06;82.67
57801;BME280;43627;42.728;23.256;2023-02-18T00:55:57;95681.38;;;2.00;83.52
57801;BME280;43627;42.728;23.256;2023-02-18T00:58:23;95681.34;;;2.04;83.40
57801;BME280;43627;42.728;23.256;2023-02-18T01:00:50;95698.66;;;1.99;89.89
57801;BME280;43627;42.728;23.256;2023-02-18T01:03:17;95695.22;;;1.85;87.71
57801;BME280;43627;42.728;23.256;2023-02-18T01:05:45;95677.97;;;1.75;88.75
57801;BME280;43627;42.728;23.256;2023-02-18T01:08:11;95671.06;;;1.74;89.93
57801;BME280;43627;42.728;23.256;2023-02-18T01:10:43;95678.34;;;1.74;92.83
57801;BME280;43627;42.728;23.256;2023-02-18T01:13:10;95683.34;;;1.82;92.62
57801;BME280;43627;42.728;23.256;2023-02-18T01:15:39;95664.53;;;1.75;89.94
57801;BME280;43627;42.728;23.256;2023-02-18T01:18:06;95683.72;;;1.81;86.69
57801;BME280;43627;42.728;23.256;2023-02-18T01:20:35;95664.16;;;1.59;84.99
57801;BME280;43627;42.728;23.256;2023-02-18T01:23:02;95667.22;;;1.64;89.48
57801;BME280;43627;42.728;23.256;2023-02-18T01:25:29;95663.38;;;1.73;98.01
57801;BME280;43627;42.728;23.256;2023-02-18T01:27:56;95674.13;;;1.65;90.72
57801;BME280;43627;42.728;23.256;2023-02-18T01:30:23;95675.28;;;1.68;88.36
57801;BME280;43627;42.728;23.256;2023-02-18T01:32:50;95662.22;;;1.66;88.21
57801;BME280;43627;42.728;23.256;2023-02-18T01:35:18;95674.13;;;1.76;88.38
57801;BME280;43627;42.728;23.256;2023-02-18T01:37:47;95678.34;;;1.74;90.56
57801;BME280;43627;42.728;23.256;2023-02-18T01:40:15;95680.63;;;1.79;94.27
57801;BME280;43627;42.728;23.256;2023-02-18T01:42:43;95682.94;;;1.69;87.99
57801;BME280;43627;42.728;23.256;2023-02-18T01:48:12;95690.28;;;1.62;89.21
57801;BME280;43627;42.728;23.256;2023-02-18T01:50:44;95653.44;;;1.30;97.78
57801;BME280;43627;42.728;23.256;2023-02-18T01:53:15;95677.63;;;1.45;93.21
57801;BME280;43627;42.728;23.256;2023-02-18T01:55:42;95677.59;;;1.41;90.32
57801;BME280;43627;42.728;23.256;2023-02-18T01:58:10;95678.00;;;1.36;91.90
57801;BME280;43627;42.728;23.256;2023-02-18T02:00:38;95689.50;;;1.47;96.22
57801;BME280;43627;42.728;23.256;2023-02-18T02:03:05;95666.47;;;1.28;92.01
57801;BME280;43627;42.728;23.256;2023-02-18T02:05:32;95688.75;;;1.36;94.92
57801;BME280;43627;42.728;23.256;2023-02-18T02:08:00;95683.75;;;1.41;93.21
57801;BME280;43627;42.728;23.256;2023-02-18T02:13:16;95675.31;;;1.07;91.52
57801;BME280;43627;42.728;23.256;2023-02-18T02:15:54;95676.44;;;1.13;91.13
57801;BME280;43627;42.728;23.256;2023-02-18T02:43:26;95663.75;;;1.60;95.07
57801;BME280;43627;42.728;23.256;2023-02-18T02:46:20;95668.00;;;1.54;91.54
57801;BME280;43627;42.728;23.256;2023-02-18T02:49:02;95668.03;;;1.43;91.38
57801;BME280;43627;42.728;23.256;2023-02-18T02:54:32;95633.47;;;1.38;94.25
57801;BME280;43627;42.728;23.256;2023-02-18T02:59:50;95667.22;;;1.61;89.05
57801;BME280;43627;42.728;23.256;2023-02-18T03:02:28;95671.78;;;1.85;86.78
57801;BME280;43627;42.728;23.256;2023-02-18T03:16:33;95677.81;;;2.32;78.02
57801;BME280;43627;42.728;23.256;2023-02-18T03:19:19;95684.06;;;1.86;78.49
57801;BME280;43627;42.728;23.256;2023-02-18T03:21:56;95685.69;;;1.16;82.57
57801;BME280;43627;42.728;23.256;2023-02-18T03:24:31;95711.72;;;0.87;89.29
57801;BME280;43627;42.728;23.256;2023-02-18T03:27:26;95680.63;;;0.72;100.00
57801;BME280;43627;42.728;23.256;2023-02-18T03:29:55;95693.63;;;0.66;99.12
57801;BME280;43627;42.728;23.256;2023-02-18T03:32:25;95710.09;;;0.50;97.45
57801;BME280;43627;42.728;23.256;2023-02-18T03:34:58;95697.06;;;0.56;100.00
57801;BME280;43627;42.728;23.256;2023-02-18T03:37:26;95731.63;;;0.68;99.00
57801;BME280;43627;42.728;23.256;2023-02-18T03:39:55;95729.31;;;0.67;98.02
57801;BME280;43627;42.728;23.256;2023-02-18T03:42:26;95725.88;;;0.70;97.62
57801;BME280;43627;42.728;23.256;2023-02-18T03:44:54;95702.47;;;0.70;99.79
57801;BME280;43627;42.728;23.256;2023-02-18T03:47:21;95710.16;;;0.79;98.06
57801;BME280;43627;42.728;23.256;2023-02-18T03:49:47;95707.88;;;0.92;96.70
57801;BME280;43627;42.728;23.256;2023-02-18T03:52:14;95705.59;;;1.01;100.00
57801;BME280;43627;42.728;23.256;2023-02-18T03:54:41;95729.00;;;1.11;100.00
57801;BME280;43627;42.728;23.256;2023-02-18T03:57:08;95690.25;;;0.87;99.51
57801;BME280;43627;42.728;23.256;2023-02-18T03:59:34;95720.94;;;1.04;98.60
57801;BME280;43627;42.728;23.256;2023-02-18T04:02:01;95699.47;;;1.00;96.36
57801;BME280;43627;42.728;23.256;2023-02-18T04:04:28;95699.88;;;1.06;95.19
57801;BME280;43627;42.728;23.256;2023-02-18T04:06:55;95699.09;;;1.09;93.22
57801;BME280;43627;42.728;23.256;2023-02-18T04:09:22;95697.56;;;1.26;95.50
57801;BME280;43627;42.728;23.256;2023-02-18T04:11:49;95708.72;;;1.56;92.71
57801;BME280;43627;42.728;23.256;2023-02-18T04:14:15;95695.22;;;1.78;88.94
57801;BME280;43627;42.728;23.256;2023-02-18T04:16:42;95705.50;;;2.22;83.42
57801;BME280;43627;42.728;23.256;2023-02-18T04:19:09;95676.56;;;2.51;77.93
57801;BME280;43627;42.728;23.256;2023-02-18T04:21:36;95682.94;;;2.85;74.65
57801;BME280;43627;42.728;23.256;2023-02-18T04:24:02;95636.31;;;2.92;71.35
57801;BME280;43627;42.728;23.256;2023-02-18T04:26:29;95645.25;;;3.30;67.35
57801;BME280;43627;42.728;23.256;2023-02-18T04:28:56;95668.50;;;3.62;66.32
57801;BME280;43627;42.728;23.256;2023-02-18T04:31:22;95675.72;;;3.72;66.28
57801;BME280;43627;42.728;23.256;2023-02-18T04:33:50;95668.41;;;3.69;64.04
57801;BME280;43627;42.728;23.256;2023-02-18T04:36:16;95681.84;;;3.76;63.71
57801;BME280;43627;42.728;23.256;2023-02-18T04:38:43;95693.75;;;3.82;65.76
57801;BME280;43627;42.728;23.256;2023-02-18T04:41:09;95678.59;;;3.54;65.87
57801;BME280;43627;42.728;23.256;2023-02-18T04:43:38;95679.19;;;3.28;65.12
57801;BME280;43627;42.728;23.256;2023-02-18T04:46:04;95667.41;;;2.38;68.79
57801;BME280;43627;42.728;23.256;2023-02-18T04:48:32;95704.09;;;1.53;78.52
57801;BME280;43627;42.728;23.256;2023-02-18T04:51:00;95689.88;;;0.96;86.13
57801;BME280;43627;42.728;23.256;2023-02-18T04:53:27;95699.72;;;0.45;93.10
57801;BME280;43627;42.728;23.256;2023-02-18T04:55:53;95710.09;;;0.50;97.54
57801;BME280;43627;42.728;23.256;2023-02-18T04:58:20;95720.09;;;0.57;100.00
57801;BME280;43627;42.728;23.256;2023-02-18T05:00:47;95725.44;;;0.64;99.88
57801;BME280;43627;42.728;23.256;2023-02-18T05:03:14;95691.66;;;0.45;100.00
57801;BME280;43627;42.728;23.256;2023-02-18T05:05:40;95717.03;;;0.62;100.00
57801;BME280;43627;42.728;23.256;2023-02-18T05:08:07;95707.13;;;0.88;100.00
57801;BME280;43627;42.728;23.256;2023-02-18T05:10:34;95718.25;;;1.00;100.00
57801;BME280;43627;42.728;23.256;2023-02-18T05:13:02;95709.06;;;1.05;100.00
57801;BME280;43627;42.728;23.256;2023-02-18T05:15:29;95705.25;;;1.20;100.00
57801;BME280;43627;42.728;23.256;2023-02-18T05:17:56;95693.72;;;1.16;100.00
57801;BME280;43627;42.728;23.256;2023-02-18T05:20:22;95662.25;;;1.13;100.00
57801;BME280;43627;42.728;23.256;2023-02-18T05:22:49;95669.56;;;1.05;100.00
57801;BME280;43627;42.728;23.256;2023-02-18T05:25:16;95692.59;;;1.17;99.28
57801;BME280;43627;42.728;23.256;2023-02-18T05:27:43;95700.25;;;1.19;100.00
57801;BME280;43627;42.728;23.256;2023-02-18T05:30:09;95686.06;;;1.14;99.03
57801;BME280;43627;42.728;23.256;2023-02-18T05:32:36;95693.72;;;1.20;100.00
57801;BME280;43627;42.728;23.256;2023-02-18T05:35:03;95703.34;;;1.35;100.00
57801;BME280;43627;42.728;23.256;2023-02-18T05:37:30;95699.50;;;1.43;99.21
57801;BME280;43627;42.728;23.256;2023-02-18T05:39:57;95683.75;;;1.52;95.68
57801;BME280;43627;42.728;23.256;2023-02-18T05:42:23;95693.72;;;1.73;97.91
57801;BME280;43627;42.728;23.256;2023-02-18T05:44:50;95690.22;;;1.87;95.77
57801;BME280;43627;42.728;23.256;2023-02-18T05:47:17;95684.84;;;1.87;92.38
57801;BME280;43627;42.728;23.256;2023-02-18T05:49:43;95713.63;;;1.97;90.13
57801;BME280;43627;42.728;23.256;2023-02-18T05:52:10;95706.00;;;1.74;90.60
57801;BME280;43627;42.728;23.256;2023-02-18T05:54:38;95729.81;;;1.72;94.83
57801;BME280;43627;42.728;23.256;2023-02-18T05:57:05;95705.25;;;1.63;94.52
57801;BME280;43627;42.728;23.256;2023-02-18T05:59:32;95731.72;;;1.93;99.31
57801;BME280;43627;42.728;23.256;2023-02-18T06:01:59;95712.47;;;2.05;100.00
57801;BME280;43627;42.728;23.256;2023-02-18T06:04:26;95729.69;;;2.33;100.00
57801;BME280;43627;42.728;23.256;2023-02-18T06:06:52;95702.81;;;2.29;94.38
57801;BME280;43627;42.728;23.256;2023-02-18T06:09:20;95690.88;;;2.26;92.27
57801;BME280;43627;42.728;23.256;2023-02-18T06:11:46;95717.00;;;2.33;90.73
57801;BME280;43627;42.728;23.256;2023-02-18T06:14:13;95703.88;;;2.46;91.97
57801;BME280;43627;42.728;23.256;2023-02-18T06:16:40;95729.25;;;2.52;87.37
57801;BME280;43627;42.728;23.256;2023-02-18T06:19:06;95735.41;;;2.45;88.24
57801;BME280;43627;42.728;23.256;2023-02-18T06:21:33;95711.28;;;2.27;86.91
57801;BME280;43627;42.728;23.256;2023-02-18T06:24:00;95715.81;;;2.45;86.33
57801;BME280;43627;42.728;23.256;2023-02-18T06:26:26;95701.94;;;2.46;89.00
57801;BME280;43627;42.728;23.256;2023-02-18T06:28:53;95714.25;;;2.51;89.99
57801;BME280;43627;42.728;23.256;2023-02-18T06:31:20;95683.13;;;2.46;89.40
57801;BME280;43627;42.728;23.256;2023-02-18T06:33:47;95677.00;;;2.42;87.40
57801;BME280;43627;42.728;23.256;2023-02-18T06:36:13;95646.25;;;2.36;87.34
57801;BME280;43627;42.728;23.256;2023-02-18T06:38:44;95702.84;;;2.99;86.03
57801;BME280;43627;42.728;23.256;2023-02-18T06:41:11;95710.03;;;3.20;85.54
57801;BME280;43627;42.728;23.256;2023-02-18T06:43:39;95699.22;;;3.27;85.12
57801;BME280;43627;42.728;23.256;2023-02-18T06:46:06;95702.13;;;3.47;81.29
57801;BME280;43627;42.728;23.256;2023-02-18T06:48:33;95711.44;;;3.38;79.18
57801;BME280;43627;42.728;23.256;2023-02-18T06:51:00;95689.56;;;3.29;80.02
57801;BME280;43627;42.728;23.256;2023-02-18T06:53:27;95668.44;;;3.21;81.63
57801;BME280;43627;42.728;23.256;2023-02-18T06:55:53;95709.38;;;3.57;83.08
57801;BME280;43627;42.728;23.256;2023-02-18T06:58:20;95703.09;;;3.70;83.83
57801;BME280;43627;42.728;23.256;2023-02-18T07:00:48;95705.72;;;3.81;90.76
57801;BME280;43627;42.728;23.256;2023-02-18T07:03:15;95688.72;;;3.84;85.13
57801;BME280;43627;42.728;23.256;2023-02-18T07:05:41;95683.28;;;3.88;79.71
57801;BME280;43627;42.728;23.256;2023-02-18T07:08:08;95683.56;;;3.97;77.56
57801;BME280;43627;42.728;23.256;2023-02-18T07:10:35;95691.34;;;3.91;77.50
57801;BME280;43627;42.728;23.256;2023-02-18T07:13:02;95701.47;;;3.80;80.03
57801;BME280;43627;42.728;23.256;2023-02-18T07:15:29;95708.25;;;3.95;81.08
57801;BME280;43627;42.728;23.256;2023-02-18T07:17:56;95695.81;;;4.05;80.37
57801;BME280;43627;42.728;23.256;2023-02-18T07:20:23;95699.50;;;4.22;82.42
57801;BME280;43627;42.728;23.256;2023-02-18T07:22:50;95661.78;;;4.15;81.25
57801;BME280;43627;42.728;23.256;2023-02-18T07:25:18;95697.72;;;4.46;79.38
57801;BME280;43627;42.728;23.256;2023-02-18T07:27:47;95700.59;;;4.62;78.55
57801;BME280;43627;42.728;23.256;2023-02-18T07:30:14;95701.59;;;4.75;74.85
57801;BME280;43627;42.728;23.256;2023-02-18T07:32:41;95691.97;;;4.71;72.60
57801;BME280;43627;42.728;23.256;2023-02-18T07:35:10;95715.66;;;4.90;70.54
57801;BME280;43627;42.728;23.256;2023-02-18T07:37:44;95703.69;;;5.18;70.06
57801;BME280;43627;42.728;23.256;2023-02-18T07:40:17;95693.88;;;5.31;69.60
57801;BME280;43627;42.728;23.256;2023-02-18T07:42:44;95710.00;;;5.62;67.39
57801;BME280;43627;42.728;23.256;2023-02-18T07:45:12;95693.50;;;5.76;65.02
57801;BME280;43627;42.728;23.256;2023-02-18T07:47:39;95694.34;;;5.96;63.38
57801;BME280;43627;42.728;23.256;2023-02-18T07:50:08;95696.41;;;6.32;61.78
57801;BME280;43627;42.728;23.256;2023-02-18T07:52:35;95711.84;;;6.35;61.16
57801;BME280;43627;42.728;23.256;2023-02-18T07:55:01;95649.13;;;6.37;60.39
57801;BME280;43627;42.728;23.256;2023-02-18T07:57:28;95669.91;;;6.79;58.48
57801;BME280;43627;42.728;23.256;2023-02-18T07:59:55;95695.66;;;7.07;57.46
57801;BME280;43627;42.728;23.256;2023-02-18T08:02:22;95671.44;;;7.16;55.89
57801;BME280;43627;42.728;23.256;2023-02-18T08:04:50;95692.66;;;7.54;55.35
57801;BME280;43627;42.728;23.256;2023-02-18T08:07:18;95632.88;;;7.41;54.72
57801;BME280;43627;42.728;23.256;2023-02-18T08:09:46;95702.53;;;8.10;53.03
57801;BME280;43627;42.728;23.256;2023-02-18T08:12:14;95685.19;;;8.36;52.06
57801;BME280;43627;42.728;23.256;2023-02-18T08:14:41;95669.38;;;8.60;51.66
57801;BME280;43627;42.728;23.256;2023-02-18T08:17:08;95681.19;;;8.82;50.06
57801;BME280;43627;42.728;23.256;2023-02-18T08:19:34;95691.53;;;9.00;50.06
57801;BME280;43627;42.728;23.256;2023-02-18T08:22:01;95663.34;;;8.94;49.61
57801;BME280;43627;42.728;23.256;2023-02-18T08:24:28;95675.56;;;9.02;49.03
57801;BME280;43627;42.728;23.256;2023-02-18T08:26:55;95681.31;;;9.17;48.82
57801;BME280;43627;42.728;23.256;2023-02-18T08:29:26;95666.50;;;9.18;47.96
57801;BME280;43627;42.728;23.256;2023-02-18T08:31:53;95662.69;;;9.15;48.06
57801;BME280;43627;42.728;23.256;2023-02-18T08:34:22;95656.50;;;9.28;47.61
57801;BME280;43627;42.728;23.256;2023-02-18T08:36:49;95653.66;;;8.93;48.32
57801;BME280;43627;42.728;23.256;2023-02-18T08:39:16;95665.41;;;9.28;48.29
57801;BME280;43627;42.728;23.256;2023-02-18T08:41:42;95662.81;;;9.25;48.50
57801;BME280;43627;42.728;23.256;2023-02-18T08:44:09;95667.16;;;9.60;48.93
57801;BME280;43627;42.728;23.256;2023-02-18T08:46:36;95668.19;;;9.76;47.84
57801;BME280;43627;42.728;23.256;2023-02-18T08:49:03;95672.28;;;9.93;47.88
57801;BME280;43627;42.728;23.256;2023-02-18T08:51:30;95676.22;;;10.05;47.01
57801;BME280;43627;42.728;23.256;2023-02-18T08:53:57;95660.03;;;10.10;46.11
57801;BME280;43627;42.728;23.256;2023-02-18T08:56:27;95672.09;;;10.35;45.82
57801;BME280;43627;42.728;23.256;2023-02-18T08:58:54;95670.88;;;10.36;44.99
57801;BME280;43627;42.728;23.256;2023-02-18T09:01:20;95667.94;;;10.30;45.34
57801;BME280;43627;42.728;23.256;2023-02-18T09:03:47;95657.88;;;10.40;44.29
57801;BME280;43627;42.728;23.256;2023-02-18T09:06:14;95646.91;;;10.30;44.18
57801;BME280;43627;42.728;23.256;2023-02-18T09:08:41;95671.94;;;10.60;44.59
57801;BME280;43627;42.728;23.256;2023-02-18T09:11:09;95652.00;;;10.63;43.77
57801;BME280;43627;42.728;23.256;2023-02-18T09:13:36;95647.03;;;10.71;43.52
57801;BME280;43627;42.728;23.256;2023-02-18T09:16:06;95670.28;;;10.84;43.34
57801;BME280;43627;42.728;23.256;2023-02-18T09:18:34;95675.53;;;11.01;43.46
57801;BME280;43627;42.728;23.256;2023-02-18T09:21:02;95667.34;;;11.32;41.87
57801;BME280;43627;42.728;23.256;2023-02-18T09:23:30;95656.19;;;11.57;40.60
57801;BME280;43627;42.728;23.256;2023-02-18T09:25:57;95641.81;;;11.66;39.68
57801;BME280;43627;42.728;23.256;2023-02-18T09:28:24;95634.38;;;11.76;38.99
57801;BME280;43627;42.728;23.256;2023-02-18T09:30:51;95615.00;;;12.19;39.05
57801;BME280;43627;42.728;23.256;2023-02-18T09:33:19;95639.88;;;12.58;37.72
57801;BME280;43627;42.728;23.256;2023-02-18T09:35:46;95637.84;;;12.86;37.89
57801;BME280;43627;42.728;23.256;2023-02-18T09:38:15;95640.09;;;12.97;37.64
57801;BME280;43627;42.728;23.256;2023-02-18T09:40:50;95652.13;;;13.41;36.84
57801;BME280;43627;42.728;23.256;2023-02-18T09:43:32;95618.72;;;13.28;35.87
57801;BME280;43627;42.728;23.256;2023-02-18T09:46:01;95647.03;;;13.58;36.22
57801;BME280;43627;42.728;23.256;2023-02-18T09:48:35;95643.69;;;13.54;35.30
57801;BME280;43627;42.728;23.256;2023-02-18T09:51:02;95643.25;;;13.80;34.97
57801;BME280;43627;42.728;23.256;2023-02-18T09:53:29;95632.63;;;13.96;34.75
57801;BME280;43627;42.728;23.256;2023-02-18T09:55:56;95626.25;;;14.14;34.09
57801;BME280;43627;42.728;23.256;2023-02-18T09:58:26;95628.34;;;14.19;34.26
57801;BME280;43627;42.728;23.256;2023-02-18T10:04:04;95627.50;;;14.52;31.34
57801;BME280;43627;42.728;23.256;2023-02-18T10:06:34;95606.84;;;14.56;30.42
57801;BME280;43627;42.728;23.256;2023-02-18T10:09:13;95598.63;;;14.71;29.70
57801;BME280;43627;42.728;23.256;2023-02-18T10:11:46;95615.50;;;14.79;29.17
57801;BME280;43627;42.728;23.256;2023-02-18T10:14:15;95624.13;;;15.36;29.21
57801;BME280;43627;42.728;23.256;2023-02-18T10:16:45;95610.28;;;15.46;29.35
57801;BME280;43627;42.728;23.256;2023-02-18T10:21:49;95604.84;;;15.01;31.47
57801;BME280;43627;42.728;23.256;2023-02-18T10:24:33;95605.03;;;15.12;30.53
57801;BME280;43627;42.728;23.256;2023-02-18T10:27:04;95601.56;;;14.97;30.55
57801;BME280;43627;42.728;23.256;2023-02-18T10:29:33;95612.69;;;15.23;30.95
57801;BME280;43627;42.728;23.256;2023-02-18T10:34:59;95591.81;;;14.52;31.28
57801;BME280;43627;42.728;23.256;2023-02-18T10:43:18;95594.94;;;14.74;30.32
57801;BME280;43627;42.728;23.256;2023-02-18T10:51:25;95533.88;;;14.79;29.80
57801;BME280;43627;42.728;23.256;2023-02-18T10:53:54;95561.13;;;14.98;29.71
57801;BME280;43627;42.728;23.256;2023-02-18T10:56:36;95586.69;;;14.74;30.18
57801;BME280;43627;42.728;23.256;2023-02-18T10:59:13;95573.47;;;14.19;30.84
57801;BME280;43627;42.728;23.256;2023-02-18T11:01:44;95580.19;;;14.04;31.85
57801;BME280;43627;42.728;23.256;2023-02-18T11:04:16;95568.28;;;13.83;31.53
57801;BME280;43627;42.728;23.256;2023-02-18T11:06:44;95577.19;;;13.92;31.49
57801;BME280;43627;42.728;23.256;2023-02-18T11:09:33;95564.78;;;14.06;31.72
57801;BME280;43627;42.728;23.256;2023-02-18T11:12:06;95572.09;;;14.24;31.58
57801;BME280;43627;42.728;23.256;2023-02-18T11:14:48;95573.53;;;13.95;32.12
57801;BME280;43627;42.728;23.256;2023-02-18T11:17:29;95553.47;;;13.89;32.38
57801;BME280;43627;42.728;23.256;2023-02-18T11:19:58;95556.34;;;13.95;32.27
57801;BME280;43627;42.728;23.256;2023-02-18T11:22:31;95518.34;;;13.64;32.48
57801;BME280;43627;42.728;23.256;2023-02-18T11:25:02;95528.13;;;13.80;32.91
57801;BME280;43627;42.728;23.256;2023-02-18T11:27:31;95541.31;;;14.05;32.80
57801;BME280;43627;42.728;23.256;2023-02-18T11:30:06;95528.44;;;13.96;32.96
57801;BME280;43627;42.728;23.256;2023-02-18T11:32:40;95538.41;;;14.23;32.98
57801;BME280;43627;42.728;23.256;2023-02-18T11:35:18;95524.03;;;14.43;32.28
57801;BME280;43627;42.728;23.256;2023-02-18T11:37:45;95526.31;;;14.74;32.51
57801;BME280;43627;42.728;23.256;2023-02-18T11:40:25;95523.47;;;14.83;31.74
57801;BME280;43627;42.728;23.256;2023-02-18T11:45:32;95513.94;;;14.64;32.11
57801;BME280;43627;42.728;23.256;2023-02-18T11:48:01;95505.75;;;14.84;32.27
57801;BME280;43627;42.728;23.256;2023-02-18T11:50:31;95510.28;;;14.88;32.77
57801;BME280;43627;42.728;23.256;2023-02-18T11:52:59;95487.41;;;14.76;32.52
57801;BME280;43627;42.728;23.256;2023-02-18T11:55:27;95498.28;;;15.20;32.56
57801;BME280;43627;42.728;23.256;2023-02-18T11:58:04;95493.41;;;15.30;33.24
57801;BME280;43627;42.728;23.256;2023-02-18T12:03:14;95465.88;;;15.45;31.84
57801;BME280;43627;42.728;23.256;2023-02-18T12:05:44;95477.63;;;15.45;31.66
57801;BME280;43627;42.728;23.256;2023-02-18T12:08:16;95475.41;;;15.49;31.65
57801;BME280;43627;42.728;23.256;2023-02-18T12:10:51;95470.44;;;15.53;31.53
57801;BME280;43627;42.728;23.256;2023-02-18T12:13:30;95460.28;;;15.59;32.14
57801;BME280;43627;42.728;23.256;2023-02-18T12:16:34;95477.94;;;15.53;32.95
57801;BME280;43627;42.728;23.256;2023-02-18T12:18:59;95472.44;;;15.53;32.87
57801;BME280;43627;42.728;23.256;2023-02-18T12:27:47;95457.41;;;15.68;33.78
57801;BME280;43627;42.728;23.256;2023-02-18T12:38:19;95419.41;;;15.47;31.62
57801;BME280;43627;42.728;23.256;2023-02-18T12:54:55;95411.53;;;15.80;31.68
57801;BME280;43627;42.728;23.256;2023-02-18T13:06:11;95413.09;;;16.13;32.66
57801;BME280;43627;42.728;23.256;2023-02-18T13:11:50;95427.25;;;15.74;34.13
57801;BME280;43627;42.728;23.256;2023-02-18T13:14:22;95408.53;;;15.58;33.99
57801;BME280;43627;42.728;23.256;2023-02-18T13:16:54;95423.13;;;15.64;33.85
57801;BME280;43627;42.728;23.256;2023-02-18T13:19:27;95420.78;;;15.57;34.22
57801;BME280;43627;42.728;23.256;2023-02-18T13:22:06;95383.53;;;15.56;33.79
57801;BME280;43627;42.728;23.256;2023-02-18T13:24:42;95416.59;;;15.61;34.36
57801;BME280;43627;42.728;23.256;2023-02-18T13:28:05;95425.88;;;15.43;34.34
57801;BME280;43627;42.728;23.256;2023-02-18T13:30:40;95369.03;;;15.09;34.41
57801;BME280;43627;42.728;23.256;2023-02-18T13:33:16;95414.56;;;15.36;34.54
57801;BME280;43627;42.728;23.256;2023-02-18T13:35:57;95332.56;;;14.68;34.34
57801;BME280;43627;42.728;23.256;2023-02-18T13:41:18;95423.56;;;15.16;34.90
57801;BME280;43627;42.728;23.256;2023-02-18T13:43:46;95409.00;;;14.90;34.93
57801;BME280;43627;42.728;23.256;2023-02-18T13:46:18;95385.59;;;14.59;34.92
57801;BME280;43627;42.728;23.256;2023-02-18T13:48:51;95414.66;;;14.86;34.93
57801;BME280;43627;42.728;23.256;2023-02-18T13:51:33;95415.66;;;14.68;35.10
57801;BME280;43627;42.728;23.256;2023-02-18T13:56:44;95407.91;;;14.67;35.25
57801;BME280;43627;42.728;23.256;2023-02-18T13:59:21;95427.25;;;14.57;35.29
57801;BME280;43627;42.728;23.256;2023-02-18T14:01:50;95405.03;;;14.41;35.71
57801;BME280;43627;42.728;23.256;2023-02-18T14:13:01;95414.03;;;14.26;36.41
57801;BME280;43627;42.728;23.256;2023-02-18T14:26:03;95384.28;;;13.90;36.27
57801;BME280;43627;42.728;23.256;2023-02-18T14:49:47;95416.41;;;14.19;36.96
57801;BME280;43627;42.728;23.256;2023-02-18T14:52:37;95392.09;;;14.12;37.21
57801;BME280;43627;42.728;23.256;2023-02-18T14:55:06;95383.53;;;14.04;36.65
57801;BME280;43627;42.728;23.256;2023-02-18T14:57:40;95367.94;;;13.81;37.12
57801;BME280;43627;42.728;23.256;2023-02-18T15:00:17;95402.25;;;14.06;37.19
57801;BME280;43627;42.728;23.256;2023-02-18T15:02:47;95408.47;;;14.06;37.30
57801;BME280;43627;42.728;23.256;2023-02-18T15:05:21;95373.22;;;13.84;37.53
57801;BME280;43627;42.728;23.256;2023-02-18T15:08:01;95405.84;;;13.97;37.60
57801;BME280;43627;42.728;23.256;2023-02-18T15:13:17;95414.72;;;13.92;37.56
57801;BME280;43627;42.728;23.256;2023-02-18T15:15:49;95415.28;;;13.96;37.92
57801;BME280;43627;42.728;23.256;2023-02-18T15:18:22;95416.34;;;13.84;37.75
57801;BME280;43627;42.728;23.256;2023-02-18T15:20:50;95401.38;;;13.70;38.00
57801;BME280;43627;42.728;23.256;2023-02-18T15:23:17;95405.06;;;13.67;38.31
57801;BME280;43627;42.728;23.256;2023-02-18T15:25:49;95393.06;;;13.50;38.56
57801;BME280;43627;42.728;23.256;2023-02-18T15:28:29;95397.41;;;13.56;38.55
57801;BME280;43627;42.728;23.256;2023-02-18T15:30:57;95383.38;;;13.25;39.31
57801;BME280;43627;42.728;23.256;2023-02-18T15:33:25;95366.06;;;12.95;39.45
57801;BME280;43627;42.728;23.256;2023-02-18T15:36:13;95361.72;;;12.88;39.79
57801;BME280;43627;42.728;23.256;2023-02-18T15:38:40;95387.50;;;12.96;40.20
57801;BME280;43627;42.728;23.256;2023-02-18T15:41:14;95374.13;;;12.74;40.40
57801;BME280;43627;42.728;23.256;2023-02-18T15:44:00;95388.38;;;12.78;40.70
57801;BME280;43627;42.728;23.256;2023-02-18T15:46:28;95369.41;;;12.51;40.96
57801;BME280;43627;42.728;23.256;2023-02-18T15:48:57;95348.34;;;12.42;41.17
57801;BME280;43627;42.728;23.256;2023-02-18T15:51:28;95361.84;;;12.46;41.41